sensor_id;sensor_type;location;lat;lon;timestamp;temperature;humidity
7648;DHT22;3866;48.020;11.720;2022-09-13T00:01:17;11.10;99.90
7648;DHT22;3866;48.020;11.720;2022-09-13T00:03:44;11.10;99.90
7648;DHT22;3866;48.020;11.720;2022-09-13T00:06:13;11.10;99.90
7648;DHT22;3866;48.020;11.720;2022-09-13T00:08:40;11.10;99.90
7648;DHT22;3866;48.020;11.720;2022-09-13T00:11:14;11.00;99.90
7648;DHT22;3866;48.020;11.720;2022-09-13T00:13:41;11.10;99.90
7648;DHT22;3866;48.020;11.720;2022-09-13T00:16:10;11.10;99.90
7648;DHT22;3866;48.020;11.720;2022-09-13T00:18:37;11.20;99.90
7648;DHT22;3866;48.020;11.720;2022-09-13T00:21:06;11.20;99.90
7648;DHT22;3866;48.020;11.720;2022-09-13T00:23:33;11.10;99.90
7648;DHT22;3866;48.020;11.720;2022-09-13T00:26:07;11.00;99.90
7648;DHT22;3866;48.020;11.720;2022-09-13T00:28:36;11.10;99.90
7648;DHT22;3866;48.020;11.720;2022-09-13T00:31:05;11.10;99.90
7648;DHT22;3866;48.020;11.720;2022-09-13T00:33:33;11.00;99.90
7648;DHT22;3866;48.020;11.720;2022-09-13T00:36:03;11.00;99.90
7648;DHT22;3866;48.020;11.720;2022-09-13T00:38:30;11.00;99.90
7648;DHT22;3866;48.020;11.720;2022-09-13T00:40:57;11.10;99.90
7648;DHT22;3866;48.020;11.720;2022-09-13T00:43:41;11.10;99.90
7648;DHT22;3866;48.020;11.720;2022-09-13T00:46:09;11.10;99.90
7648;DHT22;3866;48.020;11.720;2022-09-13T00:48:37;11.10;99.90
7648;DHT22;3866;48.020;11.720;2022-09-13T00:51:05;11.10;99.90
7648;DHT22;3866;48.020;11.720;2022-09-13T00:53:36;11.10;99.90
7648;DHT22;3866;48.020;11.720;2022-09-13T00:56:08;11.10;99.90
7648;DHT22;3866;48.020;11.720;2022-09-13T00:58:41;11.00;99.90
7648;DHT22;3866;48.020;11.720;2022-09-13T01:01:12;11.00;99.90
7648;DHT22;3866;48.020;11.720;2022-09-13T01:03:40;10.90;99.90
7648;DHT22;3866;48.020;11.720;2022-09-13T01:06:15;10.90;99.90
7648;DHT22;3866;48.020;11.720;2022-09-13T01:08:45;10.90;99.90
7648;DHT22;3866;48.020;11.720;2022-09-13T01:11:19;10.90;99.90
7648;DHT22;3866;48.020;11.720;2022-09-13T01:13:53;10.80;99.90
7648;DHT22;3866;48.020;11.720;2022-09-13T01:16:20;10.90;99.90
7648;DHT22;3866;48.020;11.720;2022-09-13T01:18:47;10.90;99.90
7648;DHT22;3866;48.020;11.720;2022-09-13T01:27:29;11.10;99.90
7648;DHT22;3866;48.020;11.720;2022-09-13T01:30:11;10.90;99.90
7648;DHT22;3866;48.020;11.720;2022-09-13T01:35:40;10.70;99.90
7648;DHT22;3866;48.020;11.720;2022-09-13T01:38:20;10.70;99.90
7648;DHT22;3866;48.020;11.720;2022-09-13T01:41:00;10.70;99.90
7648;DHT22;3866;48.020;11.720;2022-09-13T01:43:41;10.60;99.90
7648;DHT22;3866;48.020;11.720;2022-09-13T01:46:17;10.60;99.90
7648;DHT22;3866;48.020;11.720;2022-09-13T01:48:54;10.60;99.90
7648;DHT22;3866;48.020;11.720;2022-09-13T01:51:28;10.60;99.90
7648;DHT22;3866;48.020;11.720;2022-09-13T01:54:16;10.60;99.90
7648;DHT22;3866;48.020;11.720;2022-09-13T01:56:50;10.50;99.90
7648;DHT22;3866;48.020;11.720;2022-09-13T01:59:21;10.40;99.90
7648;DHT22;3866;48.020;11.720;2022-09-13T02:01:55;10.40;99.90
7648;DHT22;3866;48.020;11.720;2022-09-13T02:04:27;10.50;99.90
7648;DHT22;3866;48.020;11.720;2022-09-13T02:07:01;10.40;99.90
7648;DHT22;3866;48.020;11.720;2022-09-13T02:09:33;10.40;99.90
7648;DHT22;3866;48.020;11.720;2022-09-13T02:12:04;10.40;99.90
7648;DHT22;3866;48.020;11.720;2022-09-13T02:14:35;10.50;99.90
7648;DHT22;3866;48.020;11.720;2022-09-13T02:17:06;10.60;99.90
7648;DHT22;3866;48.020;11.720;2022-09-13T02:19:40;10.60;99.90
7648;DHT22;3866;48.020;11.720;2022-09-13T02:22:12;10.70;99.90
7648;DHT22;3866;48.020;11.720;2022-09-13T02:24:44;10.70;99.90
7648;DHT22;3866;48.020;11.720;2022-09-13T02:27:14;10.80;99.90
7648;DHT22;3866;48.020;11.720;2022-09-13T02:29:44;10.80;99.90
7648;DHT22;3866;48.020;11.720;2022-09-13T02:32:19;10.70;99.90
7648;DHT22;3866;48.020;11.720;2022-09-13T02:34:50;10.70;99.90
7648;DHT22;3866;48.020;11.720;2022-09-13T02:37:19;10.70;99.90
7648;DHT22;3866;48.020;11.720;2022-09-13T02:39:51;10.60;99.90
7648;DHT22;3866;48.020;11.720;2022-09-13T02:42:21;10.60;99.90
7648;DHT22;3866;48.020;11.720;2022-09-13T02:44:51;10.60;99.90
7648;DHT22;3866;48.020;11.720;2022-09-13T02:47:32;10.60;99.90
7648;DHT22;3866;48.020;11.720;2022-09-13T02:50:13;10.60;99.90
7648;DHT22;3866;48.020;11.720;2022-09-13T02:52:49;10.60;99.90
7648;DHT22;3866;48.020;11.720;2022-09-13T02:55:20;10.70;99.90
7648;DHT22;3866;48.020;11.720;2022-09-13T02:57:55;10.70;99.90
7648;DHT22;3866;48.020;11.720;2022-09-13T03:00:25;10.60;99.90
7648;DHT22;3866;48.020;11.720;2022-09-13T03:02:56;10.60;99.90
7648;DHT22;3866;48.020;11.720;2022-09-13T03:05:24;10.50;99.90
7648;DHT22;3866;48.020;11.720;2022-09-13T03:07:51;10.50;99.90
7648;DHT22;3866;48.020;11.720;2022-09-13T03:10:18;10.40;99.90
7648;DHT22;3866;48.020;11.720;2022-09-13T03:13:00;10.50;99.90
7648;DHT22;3866;48.020;11.720;2022-09-13T03:15:42;10.60;99.90
7648;DHT22;3866;48.020;11.720;2022-09-13T03:18:22;10.60;99.90
7648;DHT22;3866;48.020;11.720;2022-09-13T03:21:07;10.50;99.90
7648;DHT22;3866;48.020;11.720;2022-09-13T03:23:46;10.50;99.90
7648;DHT22;3866;48.020;11.720;2022-09-13T03:26:34;10.50;99.90
7648;DHT22;3866;48.020;11.720;2022-09-13T03:29:16;10.50;99.90
7648;DHT22;3866;48.020;11.720;2022-09-13T03:31:53;10.60;99.90
7648;DHT22;3866;48.020;11.720;2022-09-13T03:34:32;10.50;99.90
7648;DHT22;3866;48.020;11.720;2022-09-13T03:37:05;10.40;99.90
7648;DHT22;3866;48.020;11.720;2022-09-13T03:39:38;10.40;99.90
7648;DHT22;3866;48.020;11.720;2022-09-13T03:42:11;10.20;99.90
7648;DHT22;3866;48.020;11.720;2022-09-13T03:44:43;10.10;99.90
7648;DHT22;3866;48.020;11.720;2022-09-13T03:47:12;10.00;99.90
7648;DHT22;3866;48.020;11.720;2022-09-13T03:49:41;9.90;99.90
7648;DHT22;3866;48.020;11.720;2022-09-13T03:52:10;10.00;99.90
7648;DHT22;3866;48.020;11.720;2022-09-13T03:54:37;9.90;99.90
7648;DHT22;3866;48.020;11.720;2022-09-13T03:57:06;10.00;99.90
7648;DHT22;3866;48.020;11.720;2022-09-13T03:59:33;10.10;99.90
7648;DHT22;3866;48.020;11.720;2022-09-13T04:02:01;10.20;99.90
7648;DHT22;3866;48.020;11.720;2022-09-13T04:04:28;10.10;99.90
7648;DHT22;3866;48.020;11.720;2022-09-13T04:06:57;10.10;99.90
7648;DHT22;3866;48.020;11.720;2022-09-13T04:09:29;10.20;99.90
7648;DHT22;3866;48.020;11.720;2022-09-13T04:11:56;10.20;99.90
7648;DHT22;3866;48.020;11.720;2022-09-13T04:14:23;10.10;99.90
7648;DHT22;3866;48.020;11.720;2022-09-13T04:16:51;10.20;99.90
7648;DHT22;3866;48.020;11.720;2022-09-13T04:19:19;10.20;99.90
7648;DHT22;3866;48.020;11.720;2022-09-13T04:21:47;10.30;99.90
7648;DHT22;3866;48.020;11.720;2022-09-13T04:24:17;10.30;99.90
7648;DHT22;3866;48.020;11.720;2022-09-13T04:26:44;10.20;99.90
7648;DHT22;3866;48.020;11.720;2022-09-13T04:29:14;10.20;99.90
7648;DHT22;3866;48.020;11.720;2022-09-13T04:31:41;10.20;99.90
7648;DHT22;3866;48.020;11.720;2022-09-13T04:34:07;10.20;99.90
7648;DHT22;3866;48.020;11.720;2022-09-13T04:36:34;10.20;99.90
7648;DHT22;3866;48.020;11.720;2022-09-13T04:39:02;10.20;99.90
7648;DHT22;3866;48.020;11.720;2022-09-13T04:41:30;10.20;99.90
7648;DHT22;3866;48.020;11.720;2022-09-13T04:43:59;10.10;99.90
7648;DHT22;3866;48.020;11.720;2022-09-13T04:46:26;10.20;99.90
7648;DHT22;3866;48.020;11.720;2022-09-13T04:48:53;10.20;99.90
7648;DHT22;3866;48.020;11.720;2022-09-13T04:51:20;10.20;99.90
7648;DHT22;3866;48.020;11.720;2022-09-13T04:53:51;10.30;99.90
7648;DHT22;3866;48.020;11.720;2022-09-13T04:56:19;10.30;99.90
7648;DHT22;3866;48.020;11.720;2022-09-13T04:58:47;10.40;99.90
7648;DHT22;3866;48.020;11.720;2022-09-13T05:01:14;10.40;99.90
7648;DHT22;3866;48.020;11.720;2022-09-13T05:03:41;10.40;99.90
7648;DHT22;3866;48.020;11.720;2022-09-13T05:06:09;10.30;99.90
7648;DHT22;3866;48.020;11.720;2022-09-13T05:08:37;10.30;99.90
7648;DHT22;3866;48.020;11.720;2022-09-13T05:11:05;10.30;99.90
7648;DHT22;3866;48.020;11.720;2022-09-13T05:13:32;10.30;99.90
7648;DHT22;3866;48.020;11.720;2022-09-13T05:16:03;10.40;99.90
7648;DHT22;3866;48.020;11.720;2022-09-13T05:18:31;10.50;99.90
7648;DHT22;3866;48.020;11.720;2022-09-13T05:20:59;10.60;99.90
7648;DHT22;3866;48.020;11.720;2022-09-13T05:23:27;10.70;99.90
7648;DHT22;3866;48.020;11.720;2022-09-13T05:25:55;10.80;99.90
7648;DHT22;3866;48.020;11.720;2022-09-13T05:28:23;10.90;99.90
7648;DHT22;3866;48.020;11.720;2022-09-13T05:30:54;11.00;99.90
7648;DHT22;3866;48.020;11.720;2022-09-13T05:33:23;11.00;99.90
7648;DHT22;3866;48.020;11.720;2022-09-13T05:35:50;11.10;99.90
7648;DHT22;3866;48.020;11.720;2022-09-13T05:38:17;11.20;99.90
7648;DHT22;3866;48.020;11.720;2022-09-13T05:40:44;11.40;99.90
7648;DHT22;3866;48.020;11.720;2022-09-13T05:43:11;11.50;99.90
7648;DHT22;3866;48.020;11.720;2022-09-13T05:45:38;11.70;99.90
7648;DHT22;3866;48.020;11.720;2022-09-13T05:48:05;11.80;99.90
7648;DHT22;3866;48.020;11.720;2022-09-13T05:50:37;12.00;99.90
7648;DHT22;3866;48.020;11.720;2022-09-13T05:53:04;12.20;99.90
7648;DHT22;3866;48.020;11.720;2022-09-13T05:55:32;12.60;99.90
7648;DHT22;3866;48.020;11.720;2022-09-13T05:58:00;13.00;99.90
7648;DHT22;3866;48.020;11.720;2022-09-13T06:00:27;13.10;99.90
7648;DHT22;3866;48.020;11.720;2022-09-13T06:02:56;13.10;99.90
7648;DHT22;3866;48.020;11.720;2022-09-13T06:05:23;13.10;99.90
7648;DHT22;3866;48.020;11.720;2022-09-13T06:07:51;13.10;99.90
7648;DHT22;3866;48.020;11.720;2022-09-13T06:10:18;13.30;99.90
7648;DHT22;3866;48.020;11.720;2022-09-13T06:12:45;13.50;99.90
7648;DHT22;3866;48.020;11.720;2022-09-13T06:15:12;13.50;99.90
7648;DHT22;3866;48.020;11.720;2022-09-13T06:17:40;14.30;99.90
7648;DHT22;3866;48.020;11.720;2022-09-13T06:20:08;15.40;99.90
7648;DHT22;3866;48.020;11.720;2022-09-13T06:22:36;16.10;99.90
7648;DHT22;3866;48.020;11.720;2022-09-13T06:25:05;16.50;99.90
7648;DHT22;3866;48.020;11.720;2022-09-13T06:27:32;17.70;99.90
7648;DHT22;3866;48.020;11.720;2022-09-13T06:29:59;19.20;99.90
7648;DHT22;3866;48.020;11.720;2022-09-13T06:32:26;20.90;99.90
7648;DHT22;3866;48.020;11.720;2022-09-13T06:34:52;19.80;99.90
7648;DHT22;3866;48.020;11.720;2022-09-13T06:37:19;19.80;99.90
7648;DHT22;3866;48.020;11.720;2022-09-13T06:39:46;19.20;99.90
7648;DHT22;3866;48.020;11.720;2022-09-13T06:42:15;19.20;99.90
7648;DHT22;3866;48.020;11.720;2022-09-13T06:44:41;19.40;99.90
7648;DHT22;3866;48.020;11.720;2022-09-13T06:47:10;19.20;99.90
7648;DHT22;3866;48.020;11.720;2022-09-13T06:49:37;19.90;99.90
7648;DHT22;3866;48.020;11.720;2022-09-13T06:52:07;21.20;99.90
7648;DHT22;3866;48.020;11.720;2022-09-13T06:54:34;21.90;99.90
7648;DHT22;3866;48.020;11.720;2022-09-13T06:57:01;24.30;99.90
7648;DHT22;3866;48.020;11.720;2022-09-13T06:59:30;25.30;99.90
7648;DHT22;3866;48.020;11.720;2022-09-13T07:01:56;22.90;99.90
7648;DHT22;3866;48.020;11.720;2022-09-13T07:04:23;23.90;99.90
7648;DHT22;3866;48.020;11.720;2022-09-13T07:06:50;22.60;99.90
7648;DHT22;3866;48.020;11.720;2022-09-13T07:09:18;22.80;99.90
7648;DHT22;3866;48.020;11.720;2022-09-13T07:11:47;23.30;99.90
7648;DHT22;3866;48.020;11.720;2022-09-13T07:14:16;21.80;99.90
7648;DHT22;3866;48.020;11.720;2022-09-13T07:16:45;21.10;99.90
7648;DHT22;3866;48.020;11.720;2022-09-13T07:19:13;21.40;99.90
7648;DHT22;3866;48.020;11.720;2022-09-13T07:21:41;25.50;99.90
7648;DHT22;3866;48.020;11.720;2022-09-13T07:24:08;26.20;99.90
7648;DHT22;3866;48.020;11.720;2022-09-13T07:26:36;28.70;99.90
7648;DHT22;3866;48.020;11.720;2022-09-13T07:29:05;28.40;99.90
7648;DHT22;3866;48.020;11.720;2022-09-13T07:31:34;27.40;99.90
7648;DHT22;3866;48.020;11.720;2022-09-13T07:34:04;24.10;99.90
7648;DHT22;3866;48.020;11.720;2022-09-13T07:36:35;23.50;99.90
7648;DHT22;3866;48.020;11.720;2022-09-13T07:39:03;22.90;99.90
7648;DHT22;3866;48.020;11.720;2022-09-13T07:41:31;22.40;99.90
7648;DHT22;3866;48.020;11.720;2022-09-13T07:43:59;22.80;99.90
7648;DHT22;3866;48.020;11.720;2022-09-13T07:46:28;23.80;99.90
7648;DHT22;3866;48.020;11.720;2022-09-13T07:48:57;23.70;99.90
7648;DHT22;3866;48.020;11.720;2022-09-13T07:51:27;23.80;99.90
7648;DHT22;3866;48.020;11.720;2022-09-13T07:53:56;25.70;99.90
7648;DHT22;3866;48.020;11.720;2022-09-13T07:56:25;27.40;99.90
7648;DHT22;3866;48.020;11.720;2022-09-13T07:58:53;25.30;99.90
7648;DHT22;3866;48.020;11.720;2022-09-13T08:01:22;24.50;99.90
7648;DHT22;3866;48.020;11.720;2022-09-13T08:03:50;24.70;99.90
7648;DHT22;3866;48.020;11.720;2022-09-13T08:06:18;24.50;99.90
7648;DHT22;3866;48.020;11.720;2022-09-13T08:08:47;24.70;99.90
7648;DHT22;3866;48.020;11.720;2022-09-13T08:11:16;24.50;99.90
7648;DHT22;3866;48.020;11.720;2022-09-13T08:13:44;25.30;99.90
7648;DHT22;3866;48.020;11.720;2022-09-13T08:16:11;24.70;99.90
7648;DHT22;3866;48.020;11.720;2022-09-13T08:18:42;23.90;99.90
7648;DHT22;3866;48.020;11.720;2022-09-13T08:21:10;25.20;99.90
7648;DHT22;3866;48.020;11.720;2022-09-13T08:23:37;24.30;99.90
7648;DHT22;3866;48.020;11.720;2022-09-13T08:26:06;23.80;99.90
7648;DHT22;3866;48.020;11.720;2022-09-13T08:28:34;23.80;99.90
7648;DHT22;3866;48.020;11.720;2022-09-13T08:31:05;23.20;99.90
7648;DHT22;3866;48.020;11.720;2022-09-13T08:33:33;22.90;99.90
7648;DHT22;3866;48.020;11.720;2022-09-13T08:36:00;23.10;99.90
7648;DHT22;3866;48.020;11.720;2022-09-13T08:38:27;23.30;99.90
7648;DHT22;3866;48.020;11.720;2022-09-13T08:40:57;22.80;99.90
7648;DHT22;3866;48.020;11.720;2022-09-13T08:43:38;22.60;99.90
7648;DHT22;3866;48.020;11.720;2022-09-13T08:46:13;22.50;99.90
7648;DHT22;3866;48.020;11.720;2022-09-13T08:48:46;22.40;99.90
7648;DHT22;3866;48.020;11.720;2022-09-13T08:51:26;22.40;99.90
7648;DHT22;3866;48.020;11.720;2022-09-13T08:53:54;22.60;99.90
7648;DHT22;3866;48.020;11.720;2022-09-13T08:56:25;22.30;99.90
7648;DHT22;3866;48.020;11.720;2022-09-13T08:59:05;22.30;99.90
7648;DHT22;3866;48.020;11.720;2022-09-13T09:01:49;22.30;99.90
7648;DHT22;3866;48.020;11.720;2022-09-13T09:04:33;22.50;99.90
7648;DHT22;3866;48.020;11.720;2022-09-13T09:07:05;22.60;99.90
7648;DHT22;3866;48.020;11.720;2022-09-13T09:09:40;22.30;99.90
7648;DHT22;3866;48.020;11.720;2022-09-13T09:12:15;22.60;99.90
7648;DHT22;3866;48.020;11.720;2022-09-13T09:14:46;23.10;99.90
7648;DHT22;3866;48.020;11.720;2022-09-13T09:17:21;22.90;99.90
7648;DHT22;3866;48.020;11.720;2022-09-13T09:19:54;23.10;99.90
7648;DHT22;3866;48.020;11.720;2022-09-13T09:22:30;23.60;99.90
7648;DHT22;3866;48.020;11.720;2022-09-13T09:24:59;23.50;99.90
7648;DHT22;3866;48.020;11.720;2022-09-13T09:27:29;23.50;99.90
7648;DHT22;3866;48.020;11.720;2022-09-13T09:29:59;23.50;99.90
7648;DHT22;3866;48.020;11.720;2022-09-13T09:33:00;23.50;99.90
7648;DHT22;3866;48.020;11.720;2022-09-13T09:35:42;23.10;99.90
7648;DHT22;3866;48.020;11.720;2022-09-13T09:38:28;23.40;99.90
7648;DHT22;3866;48.020;11.720;2022-09-13T09:40:58;23.90;99.90
7648;DHT22;3866;48.020;11.720;2022-09-13T09:43:32;23.70;99.90
7648;DHT22;3866;48.020;11.720;2022-09-13T09:46:03;23.40;99.90
7648;DHT22;3866;48.020;11.720;2022-09-13T09:48:37;23.30;99.90
7648;DHT22;3866;48.020;11.720;2022-09-13T09:51:07;23.10;99.90
7648;DHT22;3866;48.020;11.720;2022-09-13T09:53:39;23.10;99.90
7648;DHT22;3866;48.020;11.720;2022-09-13T09:56:19;23.10;99.90
7648;DHT22;3866;48.020;11.720;2022-09-13T09:58:47;23.10;99.90
7648;DHT22;3866;48.020;11.720;2022-09-13T10:01:20;23.10;99.90
7648;DHT22;3866;48.020;11.720;2022-09-13T10:04:04;23.20;99.90
7648;DHT22;3866;48.020;11.720;2022-09-13T10:06:34;23.40;99.90
7648;DHT22;3866;48.020;11.720;2022-09-13T10:09:03;23.40;99.90
7648;DHT22;3866;48.020;11.720;2022-09-13T10:11:38;23.40;99.90
7648;DHT22;3866;48.020;11.720;2022-09-13T10:17:17;23.40;99.90
7648;DHT22;3866;48.020;11.720;2022-09-13T10:19:54;23.40;99.90
7648;DHT22;3866;48.020;11.720;2022-09-13T10:22:23;23.20;99.90
7648;DHT22;3866;48.020;11.720;2022-09-13T10:24:50;23.20;99.90
7648;DHT22;3866;48.020;11.720;2022-09-13T10:27:24;23.30;99.90
7648;DHT22;3866;48.020;11.720;2022-09-13T10:29:54;23.40;99.90
7648;DHT22;3866;48.020;11.720;2022-09-13T10:32:26;23.30;99.90
7648;DHT22;3866;48.020;11.720;2022-09-13T10:34:54;23.20;99.90
7648;DHT22;3866;48.020;11.720;2022-09-13T10:37:24;23.20;99.90
7648;DHT22;3866;48.020;11.720;2022-09-13T10:40:00;23.20;99.90
7648;DHT22;3866;48.020;11.720;2022-09-13T10:42:28;23.20;99.90
7648;DHT22;3866;48.020;11.720;2022-09-13T10:44:57;23.20;99.90
7648;DHT22;3866;48.020;11.720;2022-09-13T10:47:29;23.30;99.90
7648;DHT22;3866;48.020;11.720;2022-09-13T10:49:58;23.40;99.90
7648;DHT22;3866;48.020;11.720;2022-09-13T10:52:41;23.40;99.90
7648;DHT22;3866;48.020;11.720;2022-09-13T10:55:37;23.40;99.90
7648;DHT22;3866;48.020;11.720;2022-09-13T10:58:17;23.40;99.90
7648;DHT22;3866;48.020;11.720;2022-09-13T11:03:45;23.40;99.90
7648;DHT22;3866;48.020;11.720;2022-09-13T11:06:21;23.50;99.90
7648;DHT22;3866;48.020;11.720;2022-09-13T11:08:55;23.80;99.90
7648;DHT22;3866;48.020;11.720;2022-09-13T11:11:32;23.90;99.90
7648;DHT22;3866;48.020;11.720;2022-09-13T11:14:15;23.90;99.90
7648;DHT22;3866;48.020;11.720;2022-09-13T11:16:56;23.90;99.90
7648;DHT22;3866;48.020;11.720;2022-09-13T11:19:50;24.00;99.90
7648;DHT22;3866;48.020;11.720;2022-09-13T11:25:40;24.20;99.90
7648;DHT22;3866;48.020;11.720;2022-09-13T11:28:20;24.40;99.90
7648;DHT22;3866;48.020;11.720;2022-09-13T11:31:02;24.40;99.90
7648;DHT22;3866;48.020;11.720;2022-09-13T11:33:38;24.50;99.90
7648;DHT22;3866;48.020;11.720;2022-09-13T11:36:21;24.60;99.90
7648;DHT22;3866;48.020;11.720;2022-09-13T11:39:00;24.70;99.90
7648;DHT22;3866;48.020;11.720;2022-09-13T11:41:36;25.00;99.90
7648;DHT22;3866;48.020;11.720;2022-09-13T11:44:37;25.00;99.90
7648;DHT22;3866;48.020;11.720;2022-09-13T11:47:15;25.40;99.90
7648;DHT22;3866;48.020;11.720;2022-09-13T11:50:20;25.70;99.90
7648;DHT22;3866;48.020;11.720;2022-09-13T11:53:00;25.50;99.90
7648;DHT22;3866;48.020;11.720;2022-09-13T11:55:33;25.50;99.90
7648;DHT22;3866;48.020;11.720;2022-09-13T11:58:07;25.60;99.90
7648;DHT22;3866;48.020;11.720;2022-09-13T12:00:40;25.80;99.90
7648;DHT22;3866;48.020;11.720;2022-09-13T12:03:16;25.90;99.90
7648;DHT22;3866;48.020;11.720;2022-09-13T12:05:47;26.00;99.90
7648;DHT22;3866;48.020;11.720;2022-09-13T12:08:19;26.00;99.90
7648;DHT22;3866;48.020;11.720;2022-09-13T12:10:50;26.20;99.90
7648;DHT22;3866;48.020;11.720;2022-09-13T12:13:20;26.20;99.90
7648;DHT22;3866;48.020;11.720;2022-09-13T12:15:51;25.90;99.90
7648;DHT22;3866;48.020;11.720;2022-09-13T12:18:22;26.10;99.90
7648;DHT22;3866;48.020;11.720;2022-09-13T12:20:51;25.90;99.90
7648;DHT22;3866;48.020;11.720;2022-09-13T12:23:23;26.00;99.90
7648;DHT22;3866;48.020;11.720;2022-09-13T12:25:56;26.30;99.90
7648;DHT22;3866;48.020;11.720;2022-09-13T12:28:26;26.40;99.90
7648;DHT22;3866;48.020;11.720;2022-09-13T12:30:58;26.30;99.90
7648;DHT22;3866;48.020;11.720;2022-09-13T12:33:27;26.00;99.90
7648;DHT22;3866;48.020;11.720;2022-09-13T12:36:08;26.20;99.90
7648;DHT22;3866;48.020;11.720;2022-09-13T12:39:09;26.30;99.90
7648;DHT22;3866;48.020;11.720;2022-09-13T12:41:49;26.70;99.90
7648;DHT22;3866;48.020;11.720;2022-09-13T12:44:35;27.10;99.90
7648;DHT22;3866;48.020;11.720;2022-09-13T12:47:23;27.30;99.90
7648;DHT22;3866;48.020;11.720;2022-09-13T12:50:18;27.10;99.90
7648;DHT22;3866;48.020;11.720;2022-09-13T12:52:55;27.50;99.90
7648;DHT22;3866;48.020;11.720;2022-09-13T12:55:42;27.60;99.90
7648;DHT22;3866;48.020;11.720;2022-09-13T12:58:29;27.50;99.90
7648;DHT22;3866;48.020;11.720;2022-09-13T13:01:09;27.80;99.90
7648;DHT22;3866;48.020;11.720;2022-09-13T13:03:47;28.40;99.90
7648;DHT22;3866;48.020;11.720;2022-09-13T13:06:25;29.00;99.90
7648;DHT22;3866;48.020;11.720;2022-09-13T13:08:55;29.10;99.90
7648;DHT22;3866;48.020;11.720;2022-09-13T13:11:25;28.80;99.90
7648;DHT22;3866;48.020;11.720;2022-09-13T13:13:55;28.90;99.90
7648;DHT22;3866;48.020;11.720;2022-09-13T13:16:25;28.80;99.90
7648;DHT22;3866;48.020;11.720;2022-09-13T13:18:54;28.90;99.90
7648;DHT22;3866;48.020;11.720;2022-09-13T13:21:37;28.50;99.90
7648;DHT22;3866;48.020;11.720;2022-09-13T13:24:42;28.20;99.90
7648;DHT22;3866;48.020;11.720;2022-09-13T13:27:35;28.40;99.90
7648;DHT22;3866;48.020;11.720;2022-09-13T13:33:27;28.50;99.90
7648;DHT22;3866;48.020;11.720;2022-09-13T13:35:56;28.50;99.90
7648;DHT22;3866;48.020;11.720;2022-09-13T13:38:41;28.70;99.90
7648;DHT22;3866;48.020;11.720;2022-09-13T13:41:42;28.50;99.90
7648;DHT22;3866;48.020;11.720;2022-09-13T13:47:51;28.40;99.90
7648;DHT22;3866;48.020;11.720;2022-09-13T13:50:20;28.10;99.90
7648;DHT22;3866;48.020;11.720;2022-09-13T13:52:56;28.10;99.90
7648;DHT22;3866;48.020;11.720;2022-09-13T13:55:41;28.20;99.90
7648;DHT22;3866;48.020;11.720;2022-09-13T13:58:30;28.10;99.90
7648;DHT22;3866;48.020;11.720;2022-09-13T14:01:00;28.40;99.90
7648;DHT22;3866;48.020;11.720;2022-09-13T14:03:41;28.50;99.90
7648;DHT22;3866;48.020;11.720;2022-09-13T14:06:16;28.30;99.90
7648;DHT22;3866;48.020;11.720;2022-09-13T14:09:02;28.10;99.90
7648;DHT22;3866;48.020;11.720;2022-09-13T14:11:47;28.10;99.90
7648;DHT22;3866;48.020;11.720;2022-09-13T14:14:39;28.00;99.90
7648;DHT22;3866;48.020;11.720;2022-09-13T14:17:44;27.90;99.90
7648;DHT22;3866;48.020;11.720;2022-09-13T14:20:18;27.90;99.90
7648;DHT22;3866;48.020;11.720;2022-09-13T14:22:46;28.00;99.90
7648;DHT22;3866;48.020;11.720;2022-09-13T14:25:23;28.00;99.90
7648;DHT22;3866;48.020;11.720;2022-09-13T14:27:54;27.80;99.90
7648;DHT22;3866;48.020;11.720;2022-09-13T14:30:24;27.80;99.90
7648;DHT22;3866;48.020;11.720;2022-09-13T14:32:53;27.70;99.90
7648;DHT22;3866;48.020;11.720;2022-09-13T14:35:28;27.10;99.90
7648;DHT22;3866;48.020;11.720;2022-09-13T14:38:09;27.00;99.90
7648;DHT22;3866;48.020;11.720;2022-09-13T14:40:36;26.90;99.90
7648;DHT22;3866;48.020;11.720;2022-09-13T14:43:14;26.80;99.90
7648;DHT22;3866;48.020;11.720;2022-09-13T14:45:43;26.50;99.90
7648;DHT22;3866;48.020;11.720;2022-09-13T14:48:15;26.40;99.90
7648;DHT22;3866;48.020;11.720;2022-09-13T14:50:48;26.30;99.90
7648;DHT22;3866;48.020;11.720;2022-09-13T14:53:18;26.40;99.90
7648;DHT22;3866;48.020;11.720;2022-09-13T14:55:49;26.50;99.90
7648;DHT22;3866;48.020;11.720;2022-09-13T14:58:21;26.40;99.90
7648;DHT22;3866;48.020;11.720;2022-09-13T15:00:53;26.30;99.90
7648;DHT22;3866;48.020;11.720;2022-09-13T15:03:21;26.10;99.90
7648;DHT22;3866;48.020;11.720;2022-09-13T15:05:54;26.10;99.90
7648;DHT22;3866;48.020;11.720;2022-09-13T15:08:40;26.00;99.90
7648;DHT22;3866;48.020;11.720;2022-09-13T15:11:13;26.00;99.90
7648;DHT22;3866;48.020;11.720;2022-09-13T15:13:41;25.90;99.90
7648;DHT22;3866;48.020;11.720;2022-09-13T15:16:25;25.90;99.90
7648;DHT22;3866;48.020;11.720;2022-09-13T15:22:12;25.70;99.90
7648;DHT22;3866;48.020;11.720;2022-09-13T15:24:43;25.60;99.90
7648;DHT22;3866;48.020;11.720;2022-09-13T15:27:21;25.50;99.90
7648;DHT22;3866;48.020;11.720;2022-09-13T15:29:49;25.30;99.90
7648;DHT22;3866;48.020;11.720;2022-09-13T15:32:29;25.20;99.90
7648;DHT22;3866;48.020;11.720;2022-09-13T15:34:58;25.10;99.90
7648;DHT22;3866;48.020;11.720;2022-09-13T15:37:44;25.10;99.90
7648;DHT22;3866;48.020;11.720;2022-09-13T15:40:15;25.00;99.90
7648;DHT22;3866;48.020;11.720;2022-09-13T15:42:47;24.90;99.90
7648;DHT22;3866;48.020;11.720;2022-09-13T15:45:15;24.80;99.90
7648;DHT22;3866;48.020;11.720;2022-09-13T15:47:44;24.80;99.90
7648;DHT22;3866;48.020;11.720;2022-09-13T15:50:19;24.70;99.90
7648;DHT22;3866;48.020;11.720;2022-09-13T15:52:48;24.70;99.90
7648;DHT22;3866;48.020;11.720;2022-09-13T15:55:15;24.70;99.90
7648;DHT22;3866;48.020;11.720;2022-09-13T15:57:43;24.60;99.90
7648;DHT22;3866;48.020;11.720;2022-09-13T16:00:15;24.60;99.90
7648;DHT22;3866;48.020;11.720;2022-09-13T16:02:44;24.50;99.90
7648;DHT22;3866;48.020;11.720;2022-09-13T16:05:11;24.40;99.90
7648;DHT22;3866;48.020;11.720;2022-09-13T16:07:38;24.30;99.90
7648;DHT22;3866;48.020;11.720;2022-09-13T16:10:10;24.20;99.90
7648;DHT22;3866;48.020;11.720;2022-09-13T16:12:38;24.10;99.90
7648;DHT22;3866;48.020;11.720;2022-09-13T16:15:06;24.20;99.90
7648;DHT22;3866;48.020;11.720;2022-09-13T16:17:33;24.10;99.90
7648;DHT22;3866;48.020;11.720;2022-09-13T16:20:00;24.00;99.90
7648;DHT22;3866;48.020;11.720;2022-09-13T16:22:27;24.10;99.90
7648;DHT22;3866;48.020;11.720;2022-09-13T16:24:54;23.90;99.90
7648;DHT22;3866;48.020;11.720;2022-09-13T16:27:22;23.80;99.90
7648;DHT22;3866;48.020;11.720;2022-09-13T16:29:51;23.80;99.90
7648;DHT22;3866;48.020;11.720;2022-09-13T16:32:18;23.70;99.90
7648;DHT22;3866;48.020;11.720;2022-09-13T16:34:45;23.90;99.90
7648;DHT22;3866;48.020;11.720;2022-09-13T16:37:13;23.90;99.90
7648;DHT22;3866;48.020;11.720;2022-09-13T16:39:40;23.90;99.90
7648;DHT22;3866;48.020;11.720;2022-09-13T16:42:07;23.90;99.90
7648;DHT22;3866;48.020;11.720;2022-09-13T16:44:35;23.70;99.90
7648;DHT22;3866;48.020;11.720;2022-09-13T16:47:02;23.60;99.90
7648;DHT22;3866;48.020;11.720;2022-09-13T16:49:29;23.50;99.90